Time;durP1;ratioP1;P1;durP2;ratioP2;P2;SDS_P1;SDS_P2;PMS_P1;PMS_P2;Temp;Humidity;BMP_temperature;BMP_pressure;BME280_temperature;BME280_humidity;BME280_pressure;Samples;Min_cycle;Max_cycle;Signal;HPM_P1;HPM_P2
2021/06/19 15:08:01;;;;;;;4.20;1.15;;;22.70;42.60;;;;;;5106963;27;20780;-79
2021/06/19 15:10:27;;;;;;;3.25;1.30;;;22.90;43.00;;;;;;5068577;28;20065;-80
2021/06/19 15:12:52;;;;;;;7.47;1.15;;;22.90;42.70;;;;;;5049474;28;20079;-80
2021/06/19 15:15:18;;;;;;;3.88;1.33;;;22.90;42.40;;;;;;5032029;28;20032;-79
2021/06/19 15:17:45;;;;;;;4.07;1.23;;;22.90;42.10;;;;;;5048558;28;20796;-81
2021/06/19 15:20:12;;;;;;;2.97;0.95;;;22.90;42.10;;;;;;5048695;28;20021;-79
2021/06/19 15:22:39;;;;;;;2.50;1.27;;;22.80;42.10;;;;;;5049609;28;20022;-80
2021/06/19 15:25:06;;;;;;;3.45;1.20;;;22.60;42.10;;;;;;5044124;28;20041;-79
2021/06/19 15:27:32;;;;;;;3.65;1.45;;;22.50;42.30;;;;;;5033326;28;20033;-80
2021/06/19 15:29:58;;;;;;;6.43;1.27;;;22.40;43.40;;;;;;5049753;28;20116;-80
2021/06/19 15:32:24;;;;;;;4.47;1.20;;;22.30;43.60;;;;;;5032133;28;20064;-81
2021/06/19 15:34:51;;;;;;;2.63;1.33;;;22.30;43.50;;;;;;5048502;28;20037;-79
2021/06/19 15:37:17;;;;;;;6.93;1.33;;;22.20;43.10;;;;;;5032498;28;20033;-80
2021/06/19 15:39:43;;;;;;;3.42;1.50;;;22.20;43.10;;;;;;5049363;28;20029;-80
2021/06/19 15:42:10;;;;;;;4.47;1.27;;;22.20;43.40;;;;;;5049851;28;20158;-81
2021/06/19 15:44:36;;;;;;;4.15;1.25;;;22.10;43.60;;;;;;5065663;28;20025;-81
2021/06/19 15:47:03;;;;;;;3.25;1.13;;;22.10;43.50;;;;;;5031882;28;20029;-80
2021/06/19 15:49:32;;;;;;;3.00;0.85;;;22.10;43.60;;;;;;5031038;28;20095;-78
2021/06/19 15:51:58;;;;;;;6.13;1.10;;;22.10;43.50;;;;;;5031406;28;20021;-81
2021/06/19 15:54:24;;;;;;;2.05;1.00;;;22.00;43.60;;;;;;5032274;28;20037;-80
2021/06/19 15:56:50;;;;;;;5.50;1.45;;;21.90;52.70;;;;;;5032049;28;20033;-78
2021/06/19 15:59:16;;;;;;;4.78;1.70;;;21.70;44.50;;;;;;5047652;28;20103;-77
2021/06/19 16:01:43;;;;;;;7.82;1.75;;;21.50;45.20;;;;;;5032472;28;20057;-78
2021/06/19 16:04:08;;;;;;;5.78;1.92;;;21.40;45.90;;;;;;5049999;28;20031;-80
2021/06/19 16:06:35;;;;;;;5.63;1.50;;;21.30;46.40;;;;;;5037646;28;20124;-78
2021/06/19 16:09:01;;;;;;;5.57;1.40;;;21.20;53.90;;;;;;5049746;28;20052;-76
2021/06/19 16:11:27;;;;;;;4.55;1.63;;;21.30;47.00;;;;;;5049007;28;20096;-81
2021/06/19 16:13:53;;;;;;;5.20;2.00;;;21.30;47.30;;;;;;5049442;28;20033;-79
2021/06/19 16:16:19;;;;;;;8.88;1.65;;;21.40;47.50;;;;;;5030454;28;20091;-78
2021/06/19 16:18:45;;;;;;;3.15;1.70;;;21.40;47.50;;;;;;5020712;28;20026;-77
2021/06/19 16:21:11;;;;;;;5.70;2.10;;;21.40;47.50;;;;;;5002674;28;20499;-78
2021/06/19 16:23:36;;;;;;;3.38;1.80;;;21.50;47.40;;;;;;5004513;28;20033;-77
2021/06/19 16:26:06;;;;;;;5.78;1.75;;;21.50;47.30;;;;;;5030083;28;20045;-78
2021/06/19 16:28:35;;;;;;;;;;;21.60;47.40;;;;;;5035410;28;20025;-78
2021/06/19 16:31:02;;;;;;;4.07;1.92;;;21.60;47.30;;;;;;5061683;28;19917;-78
2021/06/19 16:33:28;;;;;;;6.57;1.67;;;21.50;47.40;;;;;;5048123;28;20034;-78
2021/06/19 16:35:53;;;;;;;7.28;1.83;;;21.50;47.80;;;;;;5008872;28;20029;-81
2021/06/19 16:38:19;;;;;;;4.82;2.00;;;21.40;48.20;;;;;;4997955;28;20092;-81
2021/06/19 16:40:45;;;;;;;10.20;2.65;;;21.40;48.40;;;;;;5053235;28;20022;-74
2021/06/19 16:43:10;;;;;;;8.82;3.10;;;21.40;48.60;;;;;;5021169;28;20056;-78
2021/06/19 16:45:36;;;;;;;8.32;2.10;;;21.30;48.80;;;;;;5020199;28;20049;-79
2021/06/19 16:48:02;;;;;;;6.40;2.13;;;21.30;49.00;;;;;;5008175;28;20422;-79
2021/06/19 16:50:28;;;;;;;6.55;2.35;;;21.30;49.20;;;;;;5018444;28;20034;-79
2021/06/19 16:52:53;;;;;;;3.28;1.88;;;21.20;49.20;;;;;;5034834;28;20033;-79
2021/06/19 16:55:19;;;;;;;4.97;2.10;;;21.10;49.40;;;;;;5018206;28;20032;-78
2021/06/19 16:57:46;;;;;;;5.53;2.10;;;21.00;59.10;;;;;;5033427;28;20044;-79
2021/06/19 17:00:12;;;;;;;5.20;2.30;;;21.10;49.60;;;;;;5035540;28;20021;-80
2021/06/19 17:02:38;;;;;;;6.15;2.35;;;21.00;49.70;;;;;;5032130;28;20036;-80
2021/06/19 17:05:05;;;;;;;7.20;2.95;;;20.90;50.10;;;;;;5014474;28;20037;-77
2021/06/19 17:07:30;;;;;;;6.57;2.50;;;20.90;50.00;;;;;;4998215;28;20569;-80
2021/06/19 17:09:59;;;;;;;7.63;2.72;;;20.80;49.90;;;;;;5003223;28;20107;-79
2021/06/19 17:12:25;;;;;;;6.78;1.98;;;20.70;50.00;;;;;;5034991;28;20049;-77
2021/06/19 17:14:51;;;;;;;6.82;2.22;;;20.70;50.20;;;;;;5035842;28;20446;-77
2021/06/19 17:17:17;;;;;;;4.07;1.83;;;20.70;50.50;;;;;;5037365;28;20621;-80
2021/06/19 17:19:43;;;;;;;6.90;1.92;;;20.70;50.50;;;;;;5034507;28;20037;-80
2021/06/19 17:22:09;;;;;;;7.10;2.40;;;20.70;50.50;;;;;;5035526;28;20025;-79
2021/06/19 17:24:34;;;;;;;9.30;3.03;;;20.70;50.60;;;;;;5035706;28;20030;-79
2021/06/19 17:27:00;;;;;;;6.05;2.20;;;20.80;50.60;;;;;;5036169;28;20028;-80
2021/06/19 17:29:26;;;;;;;5.78;2.08;;;20.90;50.60;;;;;;5035877;28;20033;-80
2021/06/19 17:31:52;;;;;;;9.20;2.33;;;20.90;50.60;;;;;;5034947;28;20032;-78
2021/06/19 17:34:17;;;;;;;4.50;2.33;;;20.90;50.30;;;;;;5032264;28;20113;-79
2021/06/19 17:36:43;;;;;;;5.22;2.33;;;20.70;58.00;;;;;;5018637;28;20080;-78
2021/06/19 17:39:09;;;;;;;5.05;1.83;;;20.80;50.10;;;;;;5022939;28;20045;-78
2021/06/19 17:41:35;;;;;;;6.22;2.60;;;20.80;57.90;;;;;;5035167;28;20028;-78
2021/06/19 17:44:01;;;;;;;6.82;2.13;;;20.70;49.90;;;;;;5026362;28;20030;-77
2021/06/19 17:46:27;;;;;;;5.68;1.90;;;20.70;50.30;;;;;;5031362;28;20036;-78
2021/06/19 17:48:53;;;;;;;8.07;2.88;;;20.70;50.80;;;;;;5022193;28;20037;-79
2021/06/19 17:51:19;;;;;;;9.88;2.10;;;20.80;51.00;;;;;;5005265;28;20026;-78
2021/06/19 17:53:45;;;;;;;4.57;1.95;;;20.80;50.90;;;;;;5015950;28;20025;-78
2021/06/19 17:56:11;;;;;;;7.28;2.00;;;20.80;50.90;;;;;;5011070;28;20495;-78
2021/06/19 17:58:37;;;;;;;5.65;2.92;;;20.80;51.10;;;;;;5024142;28;20022;-80
2021/06/19 18:01:03;;;;;;;7.55;1.92;;;20.80;51.20;;;;;;5017133;28;20025;-80
2021/06/19 18:03:29;;;;;;;5.32;1.98;;;20.70;51.00;;;;;;5027844;28;20029;-80
2021/06/19 18:05:54;;;;;;;5.10;1.58;;;20.70;50.80;;;;;;5033246;28;20041;-79
2021/06/19 18:08:20;;;;;;;4.72;1.83;;;20.60;50.60;;;;;;5027775;28;20120;-80
2021/06/19 18:10:50;;;;;;;4.22;1.92;;;20.60;50.50;;;;;;5033839;28;20080;-79
2021/06/19 18:13:16;;;;;;;;;;;20.40;50.60;;;;;;5034261;28;20109;-79
2021/06/19 18:15:42;;;;;;;6.38;1.98;;;20.30;61.30;;;;;;5031637;28;19999;-80
2021/06/19 18:18:08;;;;;;;6.97;2.25;;;20.40;50.40;;;;;;5010745;28;20117;-81
2021/06/19 18:20:33;;;;;;;3.40;1.77;;;20.60;60.10;;;;;;4993983;28;20037;-80
2021/06/19 18:22:59;;;;;;;4.53;1.77;;;20.10;50.40;;;;;;5028626;28;20030;-81
2021/06/19 18:25:25;;;;;;;4.25;1.77;;;20.00;50.70;;;;;;5027680;28;20033;-79
2021/06/19 18:27:52;;;;;;;6.00;2.40;;;19.80;50.70;;;;;;5027881;28;20037;-79
2021/06/19 18:30:18;;;;;;;6.53;1.90;;;19.70;50.70;;;;;;5029096;28;20022;-79
2021/06/19 18:32:44;;;;;;;5.50;1.83;;;19.60;51.10;;;;;;5029988;28;20049;-80
2021/06/19 18:35:10;;;;;;;6.10;1.92;;;19.50;51.20;;;;;;5031249;28;20048;-81
2021/06/19 18:37:37;;;;;;;7.05;1.98;;;19.50;51.40;;;;;;5013222;28;20188;-79
2021/06/19 18:40:04;;;;;;;6.53;1.67;;;19.40;61.10;;;;;;5013262;28;20037;-78
2021/06/19 18:42:30;;;;;;;4.70;1.60;;;19.40;51.80;;;;;;5030701;28;20033;-79
2021/06/19 18:44:55;;;;;;;5.25;1.98;;;19.30;51.90;;;;;;5031226;28;20068;-76
2021/06/19 18:47:21;;;;;;;9.88;3.00;;;19.30;52.20;;;;;;5030876;28;20426;-78
2021/06/19 18:49:47;;;;;;;11.65;3.90;;;19.30;52.90;;;;;;5013271;28;20029;-77
2021/06/19 18:52:14;;;;;;;14.48;5.10;;;19.20;54.40;;;;;;5030544;28;20064;-77
2021/06/19 18:54:45;;;;;;;14.10;4.13;;;19.20;55.40;;;;;;5029863;28;20033;-78
2021/06/19 18:57:25;;;;;;;9.93;3.70;;;19.10;56.30;;;;;;5030760;28;20083;-79
2021/06/19 18:59:51;;;;;;;11.40;3.90;;;19.00;57.20;;;;;;5029225;28;20057;-78
2021/06/19 19:02:20;;;;;;;16.15;4.57;;;19.00;57.40;;;;;;5029151;28;20080;-82
2021/06/19 19:04:49;;;;;;;10.65;3.92;;;18.90;57.80;;;;;;5029100;28;20561;-78
2021/06/19 19:07:15;;;;;;;9.73;4.45;;;18.90;58.00;;;;;;4996378;28;20053;-77
2021/06/19 19:09:41;;;;;;;9.40;3.70;;;18.80;58.30;;;;;;5012793;28;20095;-77
2021/06/19 19:12:07;;;;;;;12.70;3.83;;;18.80;58.60;;;;;;5030196;28;20104;-77
2021/06/19 19:14:33;;;;;;;10.20;4.07;;;18.80;59.00;;;;;;5030140;28;20030;-77
2021/06/19 19:16:59;;;;;;;11.10;3.65;;;18.80;59.30;;;;;;5028730;28;20120;-79
2021/06/19 19:19:25;;;;;;;9.95;4.05;;;18.80;59.60;;;;;;5028796;28;20041;-79
2021/06/19 19:21:51;;;;;;;10.95;4.13;;;18.80;59.70;;;;;;5028909;28;20380;-78
2021/06/19 19:24:17;;;;;;;12.20;3.88;;;18.70;59.90;;;;;;5029130;28;20051;-78
2021/06/19 19:26:44;;;;;;;10.13;4.45;;;18.70;60.10;;;;;;5030003;28;20550;-79
2021/06/19 19:29:10;;;;;;;15.05;4.35;;;18.70;60.30;;;;;;5030307;28;20029;-78
2021/06/19 19:31:35;;;;;;;9.32;4.10;;;18.60;60.40;;;;;;5030133;28;20032;-78
2021/06/19 19:34:01;;;;;;;8.50;3.55;;;18.60;60.60;;;;;;5012204;28;20039;-79
2021/06/19 19:36:29;;;;;;;12.85;4.10;;;18.60;60.80;;;;;;5012453;28;20065;-79
2021/06/19 19:38:55;;;;;;;10.90;5.05;;;18.50;60.90;;;;;;5012558;28;20037;-80
2021/06/19 19:41:20;;;;;;;15.07;5.50;;;18.50;61.20;;;;;;5028880;28;20037;-78
2021/06/19 19:43:47;;;;;;;8.98;4.55;;;18.40;61.30;;;;;;5028779;28;20034;-78
2021/06/19 19:46:13;;;;;;;14.93;4.45;;;18.40;61.60;;;;;;5028804;28;20061;-79
2021/06/19 19:48:38;;;;;;;14.23;6.10;;;18.30;61.90;;;;;;5030184;28;20232;-78
2021/06/19 19:51:05;;;;;;;13.35;5.53;;;18.20;62.10;;;;;;5029702;28;20030;-78
2021/06/19 19:53:31;;;;;;;10.25;4.38;;;18.10;62.30;;;;;;5013199;28;20026;-79
2021/06/19 19:55:57;;;;;;;9.80;4.82;;;18.10;62.40;;;;;;5033862;28;20025;-77
2021/06/19 19:58:23;;;;;;;10.93;4.28;;;18.00;62.40;;;;;;5033686;28;20025;-79
2021/06/19 20:00:49;;;;;;;6.25;3.80;;;18.00;62.60;;;;;;5033830;28;20511;-79
2021/06/19 20:03:15;;;;;;;8.27;4.00;;;17.90;62.50;;;;;;5033389;28;20044;-79
2021/06/19 20:05:43;;;;;;;14.18;5.40;;;17.80;62.70;;;;;;5033095;28;20187;-79
2021/06/19 20:08:09;;;;;;;11.35;4.10;;;17.80;62.90;;;;;;5031516;28;20376;-78
2021/06/19 20:10:35;;;;;;;13.45;5.00;;;17.70;63.10;;;;;;4998933;28;20036;-79
2021/06/19 20:13:03;;;;;;;11.52;4.70;;;17.70;63.30;;;;;;5033781;28;20422;-79
2021/06/19 20:15:29;;;;;;;9.35;4.35;;;17.60;63.40;;;;;;5033277;28;20828;-78
2021/06/19 20:17:55;;;;;;;10.10;4.47;;;17.60;63.60;;;;;;5031739;28;20029;-78
2021/06/19 20:20:20;;;;;;;16.30;5.32;;;17.60;63.80;;;;;;5031802;28;20038;-80
2021/06/19 20:22:47;;;;;;;9.57;4.03;;;17.50;63.80;;;;;;5032300;28;20034;-78
2021/06/19 20:25:14;;;;;;;12.20;4.72;;;17.50;63.90;;;;;;5015535;28;20037;-79
2021/06/19 20:27:40;;;;;;;9.02;4.70;;;17.50;64.10;;;;;;5031768;28;20025;-79
2021/06/19 20:30:09;;;;;;;10.10;4.97;;;17.40;64.20;;;;;;5031775;28;20026;-79
2021/06/19 20:32:37;;;;;;;15.73;5.45;;;17.40;65.00;;;;;;5033152;28;20025;-78
2021/06/19 20:35:05;;;;;;;12.63;4.75;;;17.40;64.60;;;;;;5033276;28;20017;-77
2021/06/19 20:37:31;;;;;;;6.70;4.05;;;17.30;64.70;;;;;;5031993;28;20113;-78
2021/06/19 20:39:58;;;;;;;9.30;4.60;;;17.30;64.80;;;;;;5032317;28;20129;-77
2021/06/19 20:42:24;;;;;;;16.60;4.80;;;17.30;64.90;;;;;;5033181;28;20108;-78
2021/06/19 20:44:50;;;;;;;11.35;4.97;;;17.30;65.00;;;;;;5033431;28;20104;-80
2021/06/19 20:47:16;;;;;;;10.50;5.10;;;17.30;65.10;;;;;;5031547;28;20036;-79
2021/06/19 20:49:41;;;;;;;11.25;5.35;;;17.20;65.20;;;;;;5033452;28;20384;-79
2021/06/19 20:52:08;;;;;;;12.85;5.50;;;17.20;65.40;;;;;;5032205;28;20111;-78
2021/06/19 20:54:47;;;;;;;14.38;5.65;;;17.10;65.60;;;;;;5033286;28;20053;-79
2021/06/19 20:57:17;;;;;;;7.77;4.70;;;17.00;65.70;;;;;;5017473;28;20034;-79
2021/06/19 20:59:43;;;;;;;9.63;4.78;;;17.00;65.80;;;;;;5033566;28;20021;-78
2021/06/19 21:02:09;;;;;;;9.48;4.85;;;17.00;66.00;;;;;;5032386;28;20122;-80
2021/06/19 21:04:35;;;;;;;8.68;5.95;;;16.90;66.10;;;;;;5015826;28;20160;-79
2021/06/19 21:07:00;;;;;;;10.48;4.50;;;16.80;66.30;;;;;;5015011;28;20073;-79
2021/06/19 21:09:26;;;;;;;9.73;4.22;;;16.80;66.40;;;;;;5031790;28;20136;-79
2021/06/19 21:11:52;;;;;;;13.00;5.25;;;16.70;66.60;;;;;;4999468;28;20036;-78
2021/06/19 21:14:17;;;;;;;10.93;5.03;;;16.60;67.00;;;;;;5032878;28;20037;-78
2021/06/19 21:16:44;;;;;;;14.23;5.63;;;16.60;67.30;;;;;;5031665;28;20407;-79
2021/06/19 21:19:11;;;;;;;10.27;6.35;;;16.60;67.50;;;;;;5031863;28;20076;-78
2021/06/19 21:21:37;;;;;;;14.55;7.13;;;16.60;67.80;;;;;;5015571;28;20040;-79
2021/06/19 21:24:04;;;;;;;14.90;6.03;;;16.60;68.00;;;;;;5031657;28;20029;-74
2021/06/19 21:26:30;;;;;;;10.43;5.90;;;16.60;68.30;;;;;;5031812;28;20539;-76
2021/06/19 21:28:56;;;;;;;11.43;7.38;;;16.50;68.50;;;;;;5015639;28;20168;-78
2021/06/19 21:31:21;;;;;;;10.18;5.72;;;16.50;68.80;;;;;;5031661;28;20597;-78
2021/06/19 21:33:47;;;;;;;17.45;6.45;;;16.40;68.90;;;;;;5015188;28;20491;-79
2021/06/19 21:36:13;;;;;;;14.32;6.88;;;16.40;69.10;;;;;;5014905;28;20116;-80
2021/06/19 21:38:39;;;;;;;17.92;7.05;;;16.40;69.30;;;;;;5031484;28;20029;-79
2021/06/19 21:41:04;;;;;;;13.90;6.40;;;16.40;69.50;;;;;;5031258;28;20068;-78
2021/06/19 21:43:31;;;;;;;17.02;6.35;;;16.40;69.80;;;;;;5032463;28;20107;-79
2021/06/19 21:45:58;;;;;;;17.13;6.30;;;16.40;70.00;;;;;;5031009;28;20107;-78
2021/06/19 21:48:24;;;;;;;17.75;6.63;;;16.40;70.00;;;;;;5014845;28;20033;-78
2021/06/19 21:50:49;;;;;;;10.73;6.22;;;16.50;70.30;;;;;;4997997;28;20400;-78
2021/06/19 21:53:15;;;;;;;9.55;6.35;;;16.50;70.40;;;;;;5014589;28;20029;-76
2021/06/19 21:55:41;;;;;;;10.45;5.70;;;16.50;70.50;;;;;;5032133;28;20021;-79
2021/06/19 21:58:07;;;;;;;10.48;6.35;;;16.60;70.70;;;;;;5014454;28;20373;-79
2021/06/19 22:00:40;;;;;;;17.48;6.47;;;16.60;70.80;;;;;;5014516;28;20036;-79
2021/06/19 22:03:09;;;;;;;10.50;7.00;;;16.60;71.10;;;;;;5030904;28;20105;-79
2021/06/19 22:05:37;;;;;;;12.30;6.75;;;16.60;70.90;;;;;;5031974;28;20094;-79
2021/06/19 22:08:03;;;;;;;13.88;7.30;;;16.60;70.90;;;;;;5013935;28;20248;-79
2021/06/19 22:10:32;;;;;;;15.50;6.43;;;16.60;71.10;;;;;;5032097;28;20040;-68
2021/06/19 22:12:58;;;;;;;18.55;7.43;;;16.70;71.40;;;;;;5031895;28;20036;-78
2021/06/19 22:15:23;;;;;;;18.38;6.82;;;16.70;71.50;;;;;;5029875;28;20029;-79
2021/06/19 22:17:50;;;;;;;10.70;6.78;;;16.80;71.60;;;;;;5013684;28;20044;-78
2021/06/19 22:20:15;;;;;;;16.80;6.38;;;16.90;71.60;;;;;;5031584;28;20096;-79
2021/06/19 22:22:41;;;;;;;10.45;5.97;;;16.90;71.70;;;;;;5013837;28;20145;-78
2021/06/19 22:25:07;;;;;;;20.30;6.65;;;17.00;71.70;;;;;;5013687;28;20029;-79
2021/06/19 22:27:33;;;;;;;12.00;6.97;;;17.00;71.70;;;;;;5029589;28;20048;-79
2021/06/19 22:29:59;;;;;;;10.48;6.97;;;17.00;71.80;;;;;;5013417;28;20112;-79
2021/06/19 22:32:25;;;;;;;11.45;5.57;;;17.00;72.20;;;;;;5013696;28;20025;-77
2021/06/19 22:34:50;;;;;;;9.55;5.82;;;17.00;72.00;;;;;;5030200;28;20388;-79
2021/06/19 22:37:16;;;;;;;9.75;6.10;;;17.00;72.00;;;;;;5029918;28;20078;-80
2021/06/19 22:39:42;;;;;;;11.77;6.43;;;17.00;72.00;;;;;;4997341;28;20030;-79
2021/06/19 22:42:08;;;;;;;10.63;6.40;;;17.10;72.10;;;;;;5030032;28;20040;-79
2021/06/19 22:44:34;;;;;;;12.63;6.60;;;17.10;72.20;;;;;;5029821;28;20037;-80
2021/06/19 22:47:00;;;;;;;15.32;6.75;;;17.00;72.40;;;;;;5031229;28;20052;-79
2021/06/19 22:49:26;;;;;;;12.52;7.00;;;17.00;72.60;;;;;;5031501;28;20044;-77
2021/06/19 22:51:52;;;;;;;12.43;6.80;;;17.00;72.70;;;;;;5031328;28;20072;-80
2021/06/19 22:54:18;;;;;;;13.57;7.15;;;17.10;72.60;;;;;;5029960;28;20061;-77
2021/06/19 22:56:44;;;;;;;11.45;6.78;;;17.10;72.60;;;;;;5013413;28;20044;-79
2021/06/19 22:59:09;;;;;;;11.65;7.30;;;17.10;72.70;;;;;;5029831;28;20029;-79
2021/06/19 23:01:35;;;;;;;11.25;6.88;;;17.10;72.70;;;;;;5029917;28;20095;-79
2021/06/19 23:04:01;;;;;;;15.82;6.80;;;17.10;72.70;;;;;;5029799;28;20044;-79
2021/06/19 23:06:27;;;;;;;14.63;6.97;;;17.10;72.80;;;;;;5029222;28;20396;-80
2021/06/19 23:08:56;;;;;;;12.25;7.68;;;17.20;72.80;;;;;;5029586;28;20037;-79
2021/06/19 23:11:23;;;;;;;11.87;7.27;;;17.20;72.90;;;;;;5029690;28;20079;-78
2021/06/19 23:13:50;;;;;;;13.05;8.02;;;17.20;72.80;;;;;;5030621;28;20026;-79
2021/06/19 23:16:17;;;;;;;11.38;6.35;;;17.20;72.90;;;;;;5013201;28;20514;-80
2021/06/19 23:18:43;;;;;;;12.38;7.30;;;17.20;72.90;;;;;;5030658;28;20064;-79
2021/06/19 23:21:10;;;;;;;13.07;7.30;;;17.20;73.00;;;;;;5029638;28;20049;-79
2021/06/19 23:23:36;;;;;;;12.88;7.80;;;17.20;73.00;;;;;;5030988;28;20021;-78
2021/06/19 23:26:03;;;;;;;14.25;7.53;;;17.20;73.10;;;;;;5029365;28;20022;-79
2021/06/19 23:28:29;;;;;;;14.85;6.78;;;17.10;73.30;;;;;;5032498;28;20104;-80
2021/06/19 23:30:55;;;;;;;14.40;7.28;;;17.00;73.30;;;;;;5033516;28;20109;-80
2021/06/19 23:33:21;;;;;;;12.38;6.85;;;17.00;73.70;;;;;;5033419;28;20116;-79
2021/06/19 23:35:47;;;;;;;15.02;7.25;;;17.00;73.70;;;;;;5033615;28;20075;-76
2021/06/19 23:38:13;;;;;;;10.05;6.75;;;17.00;73.90;;;;;;5033491;28;20029;-78
2021/06/19 23:40:40;;;;;;;10.82;6.18;;;17.10;74.00;;;;;;5034623;28;20450;-76
2021/06/19 23:43:05;;;;;;;14.48;7.07;;;17.10;73.80;;;;;;5033368;28;20091;-80
2021/06/19 23:45:31;;;;;;;9.68;6.88;;;17.10;74.40;;;;;;5034747;28;20021;-80
2021/06/19 23:47:57;;;;;;;9.10;6.65;;;17.10;74.10;;;;;;5034365;28;20034;-78
2021/06/19 23:50:24;;;;;;;15.43;8.18;;;17.10;74.10;;;;;;5016957;28;20022;-78
2021/06/19 23:52:52;;;;;;;16.00;9.98;;;17.10;74.30;;;;;;5016825;28;20033;-77
2021/06/19 23:55:18;;;;;;;15.00;7.50;;;17.00;74.40;;;;;;5033165;28;20479;-79
2021/06/19 23:57:47;;;;;;;17.42;8.48;;;17.00;74.60;;;;;;5034394;28;20048;-80
